createdAt,value
2022-10-22T00:02:20.444Z,7.35
2022-10-22T00:04:47.384Z,7.38
2022-10-22T00:07:13.884Z,7.82
2022-10-22T00:09:40.792Z,8.02
2022-10-22T00:12:07.121Z,8.55
2022-10-22T00:14:33.370Z,10.48
2022-10-22T00:17:00.982Z,12.88
2022-10-22T00:19:27.623Z,8.20
2022-10-22T00:21:53.930Z,7.97
2022-10-22T00:24:20.161Z,9.13
2022-10-22T00:26:46.413Z,7.32
2022-10-22T00:29:12.807Z,6.88
2022-10-22T00:31:39.100Z,9.00
2022-10-22T00:34:05.330Z,8.98
2022-10-22T00:36:31.529Z,9.25
2022-10-22T00:38:57.761Z,8.40
2022-10-22T00:41:24.010Z,7.00
2022-10-22T00:43:54.388Z,8.75
2022-10-22T00:46:21.100Z,7.43
2022-10-22T00:48:47.347Z,9.02
2022-10-22T00:51:13.915Z,7.13
2022-10-22T00:53:43.494Z,7.90
2022-10-22T00:56:09.972Z,12.13
2022-10-22T00:58:37.361Z,9.75
2022-10-22T01:01:05.342Z,6.35
2022-10-22T01:03:31.748Z,9.40
2022-10-22T01:06:02.280Z,7.53
2022-10-22T01:08:34.929Z,10.43
2022-10-22T01:11:01.146Z,10.77
2022-10-22T01:13:33.009Z,9.40
2022-10-22T01:16:04.087Z,6.28
2022-10-22T01:18:45.368Z,9.48
2022-10-22T01:21:25.719Z,10.13
2022-10-22T01:24:10.792Z,7.00
2022-10-22T01:26:42.954Z,5.70
2022-10-22T01:29:18.104Z,9.82
2022-10-22T01:31:51.554Z,6.78
2022-10-22T01:34:18.138Z,7.45
2022-10-22T01:36:45.204Z,7.25
2022-10-22T01:39:12.240Z,8.35
2022-10-22T01:41:39.322Z,8.52
2022-10-22T01:44:05.542Z,6.60
2022-10-22T01:46:32.224Z,9.43
2022-10-22T01:49:12.536Z,7.40
2022-10-22T01:51:57.418Z,11.00
2022-10-22T01:54:23.594Z,7.72
2022-10-22T01:56:49.984Z,7.50
2022-10-22T01:59:22.319Z,8.68
2022-10-22T02:01:58.552Z,7.95
2022-10-22T02:04:35.407Z,7.65
2022-10-22T02:07:03.549Z,11.38
2022-10-22T02:09:30.972Z,10.43
2022-10-22T02:11:58.285Z,10.80
2022-10-22T02:14:25.380Z,15.77
2022-10-22T02:16:51.833Z,8.77
2022-10-22T02:19:22.825Z,8.70
2022-10-22T02:21:49.129Z,8.93
2022-10-22T02:24:16.152Z,8.02
2022-10-22T02:26:48.461Z,8.98
2022-10-22T02:29:18.700Z,8.02
2022-10-22T02:31:46.763Z,15.20
2022-10-22T02:34:15.756Z,9.20
2022-10-22T02:36:46.663Z,10.23
2022-10-22T02:44:13.581Z,7.13
2022-10-22T02:46:40.332Z,9.10
2022-10-22T02:49:06.818Z,7.75
2022-10-22T02:51:33.032Z,9.30
2022-10-22T02:53:59.226Z,8.73
2022-10-22T02:56:26.266Z,8.15
2022-10-22T02:58:52.554Z,7.15
2022-10-22T03:01:18.809Z,9.25
2022-10-22T03:03:45.109Z,12.90
2022-10-22T03:06:11.332Z,6.75
2022-10-22T03:08:37.627Z,8.90
2022-10-22T03:11:03.947Z,7.43
2022-10-22T03:13:30.216Z,7.85
2022-10-22T03:15:56.396Z,8.52
2022-10-22T03:18:22.634Z,8.02
2022-10-22T03:20:48.902Z,12.40
2022-10-22T03:23:16.396Z,8.55
2022-10-22T03:25:43.360Z,6.53
2022-10-22T03:28:10.270Z,9.00
2022-10-22T03:30:36.577Z,9.38
2022-10-22T03:33:02.802Z,9.85
2022-10-22T03:35:29.016Z,6.43
2022-10-22T03:37:55.202Z,6.88
2022-10-22T03:40:21.570Z,9.88
2022-10-22T03:42:47.967Z,8.38
2022-10-22T03:45:14.191Z,10.75
2022-10-22T03:47:40.703Z,10.68
2022-10-22T03:50:07.426Z,9.25
2022-10-22T03:52:37.564Z,9.23
2022-10-22T03:55:04.480Z,9.95
2022-10-22T03:57:30.728Z,11.90
2022-10-22T03:59:56.967Z,9.25
2022-10-22T04:02:23.375Z,7.82
2022-10-22T04:04:49.614Z,9.80
2022-10-22T04:07:16.049Z,10.32
2022-10-22T04:09:42.268Z,9.77
2022-10-22T04:12:09.427Z,9.18
2022-10-22T04:14:35.699Z,8.43
2022-10-22T04:17:01.935Z,9.82
2022-10-22T04:19:28.164Z,11.02
2022-10-22T04:21:54.352Z,10.23
2022-10-22T04:24:21.064Z,8.00
2022-10-22T04:26:47.291Z,10.40
2022-10-22T04:29:16.087Z,11.07
2022-10-22T04:31:42.814Z,9.57
2022-10-22T04:34:09.008Z,12.20
2022-10-22T04:36:35.266Z,9.90
2022-10-22T04:39:01.911Z,9.70
2022-10-22T04:41:32.436Z,8.80
2022-10-22T04:43:59.153Z,10.77
2022-10-22T04:46:26.907Z,10.73
2022-10-22T04:48:53.375Z,9.52
2022-10-22T04:51:20.983Z,9.10
2022-10-22T04:53:47.412Z,9.13
2022-10-22T04:56:21.482Z,13.00
2022-10-22T04:58:48.851Z,10.57
2022-10-22T05:01:25.798Z,9.70
2022-10-22T05:03:52.961Z,11.13
2022-10-22T05:06:20.760Z,10.75
2022-10-22T05:08:47.565Z,8.23
2022-10-22T05:11:14.669Z,10.23
2022-10-22T05:13:40.898Z,11.25
2022-10-22T05:16:07.123Z,10.25
2022-10-22T05:18:34.100Z,8.63
2022-10-22T05:21:00.306Z,10.60
2022-10-22T05:23:26.545Z,10.30
2022-10-22T05:25:52.760Z,7.88
2022-10-22T05:28:18.939Z,9.95
2022-10-22T05:30:53.247Z,8.82
2022-10-22T05:33:23.327Z,7.63
2022-10-22T05:35:50.608Z,8.95
2022-10-22T05:38:17.110Z,10.70
2022-10-22T05:40:43.416Z,8.75
2022-10-22T05:43:09.809Z,8.15
2022-10-22T05:45:36.735Z,8.73
2022-10-22T05:48:03.392Z,7.70
2022-10-22T05:50:29.675Z,7.40
2022-10-22T05:52:55.880Z,8.98
2022-10-22T05:55:22.336Z,9.30
2022-10-22T05:57:50.047Z,9.82
2022-10-22T06:00:16.730Z,11.23
2022-10-22T06:02:43.776Z,15.27
2022-10-22T06:05:10.513Z,8.65
2022-10-22T06:07:36.754Z,8.48
2022-10-22T06:10:02.985Z,10.05
2022-10-22T06:12:29.333Z,8.57
2022-10-22T06:14:55.569Z,11.30
2022-10-22T06:17:21.804Z,10.70
2022-10-22T06:19:51.493Z,9.52
2022-10-22T06:22:17.704Z,11.02
2022-10-22T06:24:45.190Z,12.13
2022-10-22T06:27:14.775Z,11.85
2022-10-22T06:29:40.981Z,9.35
2022-10-22T06:32:07.259Z,12.57
2022-10-22T06:34:33.659Z,10.70
2022-10-22T06:36:59.865Z,9.35
2022-10-22T06:39:26.098Z,9.13
2022-10-22T06:41:52.486Z,13.30
2022-10-22T06:44:22.464Z,10.07
2022-10-22T06:46:49.538Z,11.55
2022-10-22T06:49:17.098Z,9.48
2022-10-22T06:51:43.476Z,12.20
2022-10-22T06:54:10.022Z,10.43
2022-10-22T06:56:36.292Z,9.45
2022-10-22T06:59:02.616Z,10.35
2022-10-22T07:01:30.262Z,10.77
2022-10-22T07:03:56.602Z,12.50
2022-10-22T07:06:24.225Z,8.57
2022-10-22T07:08:51.012Z,12.88
2022-10-22T07:11:18.946Z,10.00
2022-10-22T07:13:45.558Z,12.65
2022-10-22T07:16:12.295Z,9.35
2022-10-22T07:18:38.985Z,8.73
2022-10-22T07:21:05.557Z,8.07
2022-10-22T07:23:31.748Z,7.80
2022-10-22T07:25:59.052Z,7.10
2022-10-22T07:28:25.411Z,8.32
2022-10-22T07:30:51.869Z,9.55
2022-10-22T07:33:18.073Z,9.27
2022-10-22T07:35:44.329Z,11.15
2022-10-22T07:38:10.542Z,7.65
2022-10-22T07:40:36.945Z,9.52
2022-10-22T07:43:03.171Z,6.20
2022-10-22T07:45:29.403Z,8.15
2022-10-22T07:47:55.600Z,7.13
2022-10-22T07:50:21.798Z,7.70
2022-10-22T07:52:48.064Z,7.07
2022-10-22T07:55:14.287Z,7.60
2022-10-22T07:57:40.617Z,7.38
2022-10-22T08:00:07.856Z,6.78
2022-10-22T08:02:34.083Z,7.45
2022-10-22T08:05:00.523Z,6.28
2022-10-22T08:09:57.852Z,6.78
2022-10-22T08:12:24.089Z,8.50
2022-10-22T08:14:50.313Z,4.53
2022-10-22T08:17:16.528Z,8.38
2022-10-22T08:19:42.781Z,4.60
2022-10-22T08:22:09.071Z,8.55
2022-10-22T08:24:35.283Z,10.43
2022-10-22T08:27:01.475Z,4.70
2022-10-22T08:29:27.837Z,8.05
2022-10-22T08:31:54.133Z,8.23
2022-10-22T08:34:20.325Z,9.55
2022-10-22T08:36:46.553Z,7.72
2022-10-22T08:39:13.174Z,6.60
2022-10-22T08:41:49.024Z,8.20
2022-10-22T08:44:22.020Z,6.43
2022-10-22T08:46:52.515Z,8.70
2022-10-22T08:49:21.469Z,6.47
2022-10-22T08:51:47.997Z,10.52
2022-10-22T08:54:18.395Z,10.73
2022-10-22T08:56:47.410Z,10.45
2022-10-22T08:59:25.610Z,10.40
2022-10-22T09:01:53.066Z,10.40
2022-10-22T09:04:25.336Z,6.00
2022-10-22T09:06:55.556Z,8.68
2022-10-22T09:09:21.977Z,6.47
2022-10-22T09:11:49.551Z,6.63
2022-10-22T09:14:17.280Z,7.03
2022-10-22T09:16:55.261Z,6.20
2022-10-22T09:19:25.623Z,6.30
2022-10-22T09:21:54.939Z,6.50
2022-10-22T09:24:25.955Z,6.63
2022-10-22T09:26:53.753Z,7.65
2022-10-22T09:29:23.101Z,5.15
2022-10-22T09:31:49.503Z,11.23
2022-10-22T09:34:19.262Z,11.77
2022-10-22T09:36:45.447Z,7.22
2022-10-22T09:39:28.736Z,7.00
2022-10-22T09:41:54.942Z,8.05
2022-10-22T09:44:21.545Z,6.18
2022-10-22T09:46:48.037Z,8.05
2022-10-22T09:49:16.103Z,5.85
2022-10-22T09:51:48.392Z,3.38
2022-10-22T09:54:23.355Z,4.28
2022-10-22T09:56:54.360Z,5.03
2022-10-22T09:59:25.076Z,5.78
2022-10-22T10:02:04.984Z,3.40
2022-10-22T10:04:41.363Z,7.53
2022-10-22T10:07:18.933Z,5.03
2022-10-22T10:09:45.185Z,6.57
2022-10-22T10:12:14.338Z,5.38
2022-10-22T10:14:47.097Z,9.27
2022-10-22T10:17:18.423Z,4.57
2022-10-22T10:19:44.657Z,3.22
2022-10-22T10:22:20.381Z,5.22
2022-10-22T10:24:55.586Z,5.43
2022-10-22T10:27:35.135Z,5.65
2022-10-22T10:30:04.120Z,5.97
2022-10-22T10:32:35.643Z,6.45
2022-10-22T10:37:29.338Z,6.55
2022-10-22T10:40:01.724Z,4.93
2022-10-22T10:42:32.722Z,9.07
2022-10-22T10:45:16.861Z,3.55
2022-10-22T10:47:43.561Z,5.25
2022-10-22T10:50:15.919Z,7.68
2022-10-22T10:52:50.519Z,4.63
2022-10-22T10:55:28.587Z,7.15
2022-10-22T10:58:10.129Z,4.85
2022-10-22T11:00:40.823Z,8.15
2022-10-22T11:03:16.183Z,4.35
2022-10-22T11:05:42.392Z,4.50
2022-10-22T11:08:13.091Z,7.70
2022-10-22T11:10:50.270Z,3.60
2022-10-22T11:13:24.757Z,4.38
2022-10-22T11:16:07.237Z,5.72
2022-10-22T11:18:42.199Z,6.35
2022-10-22T11:21:11.377Z,6.00
2022-10-22T11:23:44.072Z,6.00
2022-10-22T11:26:29.145Z,6.88
2022-10-22T11:28:58.977Z,4.90
2022-10-22T11:31:25.893Z,5.70
2022-10-22T11:34:04.728Z,6.47
2022-10-22T11:36:42.486Z,3.38
2022-10-22T11:39:26.703Z,4.25
2022-10-22T11:41:53.084Z,4.05
2022-10-22T11:44:23.498Z,3.33
2022-10-22T11:46:58.480Z,3.17
2022-10-22T11:49:41.000Z,2.92
2022-10-22T11:52:24.493Z,3.58
2022-10-22T11:54:54.018Z,3.67
2022-10-22T11:57:36.526Z,2.78
2022-10-22T12:00:09.546Z,4.28
2022-10-22T12:02:40.932Z,9.25
2022-10-22T12:07:33.544Z,2.55
2022-10-22T12:09:59.793Z,3.15
2022-10-22T12:12:28.919Z,3.45
2022-10-22T12:14:57.808Z,5.22
2022-10-22T12:17:24.756Z,2.15
2022-10-22T12:19:56.452Z,4.90
2022-10-22T12:22:29.034Z,2.42
2022-10-22T12:24:57.312Z,2.78
2022-10-22T12:27:25.293Z,4.53
2022-10-22T12:29:55.484Z,3.65
2022-10-22T12:32:21.972Z,2.83
2022-10-22T12:37:17.439Z,2.80
2022-10-22T12:39:44.903Z,3.20
2022-10-22T12:42:15.108Z,5.45
2022-10-22T12:44:41.449Z,4.68
2022-10-22T12:47:11.120Z,2.58
2022-10-22T12:49:39.661Z,4.03
2022-10-22T12:52:10.817Z,3.45
2022-10-22T12:54:39.900Z,3.28
2022-10-22T12:57:06.607Z,3.17
2022-10-22T12:59:37.265Z,2.40
2022-10-22T13:02:12.060Z,4.63
2022-10-22T13:04:38.532Z,3.53
2022-10-22T13:07:06.852Z,4.20
2022-10-22T13:09:48.540Z,3.08
2022-10-22T13:12:16.687Z,1.10
2022-10-22T13:14:44.390Z,3.47
2022-10-22T13:17:13.542Z,3.17
2022-10-22T13:19:44.642Z,2.38
2022-10-22T13:22:23.269Z,2.28
2022-10-22T13:24:51.066Z,4.07
2022-10-22T13:27:17.763Z,2.05
2022-10-22T13:29:44.492Z,2.75
2022-10-22T13:32:30.969Z,2.97
2022-10-22T13:35:06.557Z,1.95
2022-10-22T13:37:34.135Z,2.17
2022-10-22T13:40:00.374Z,2.92
2022-10-22T13:42:26.687Z,3.15
2022-10-22T13:44:53.099Z,2.47
2022-10-22T13:47:29.414Z,2.45
2022-10-22T13:49:58.299Z,5.18
2022-10-22T13:52:47.944Z,2.42
2022-10-22T13:55:14.251Z,3.85
2022-10-22T13:57:40.695Z,2.58
2022-10-22T14:00:07.340Z,2.50
2022-10-22T14:02:33.720Z,3.53
2022-10-22T14:05:03.255Z,2.17
2022-10-22T14:07:29.798Z,2.95
2022-10-22T14:09:56.063Z,2.78
2022-10-22T14:12:22.385Z,2.15
2022-10-22T14:14:48.653Z,1.38
2022-10-22T14:17:16.823Z,2.67
2022-10-22T14:19:44.870Z,2.33
2022-10-22T14:22:13.429Z,4.07
2022-10-22T14:24:39.655Z,5.65
2022-10-22T14:27:05.903Z,2.78
2022-10-22T14:29:32.177Z,2.50
2022-10-22T14:31:58.483Z,2.55
2022-10-22T14:34:24.854Z,2.00
2022-10-22T14:36:51.399Z,2.28
2022-10-22T14:39:18.564Z,2.63
2022-10-22T14:41:44.810Z,4.55
2022-10-22T14:44:14.435Z,3.15
2022-10-22T14:46:43.864Z,1.67
2022-10-22T14:49:10.418Z,2.38
2022-10-22T14:51:36.820Z,4.30
2022-10-22T14:54:03.196Z,4.60
2022-10-22T14:56:29.494Z,1.70
2022-10-22T14:58:55.779Z,3.45
2022-10-22T15:01:22.139Z,2.50
2022-10-22T15:03:48.469Z,2.88
2022-10-22T15:06:14.749Z,2.63
2022-10-22T15:08:41.013Z,1.77
2022-10-22T15:11:09.904Z,2.38
2022-10-22T15:13:36.389Z,2.33
2022-10-22T15:16:05.789Z,2.60
2022-10-22T15:18:32.124Z,3.65
2022-10-22T15:21:01.991Z,3.05
2022-10-22T15:23:28.654Z,4.38
2022-10-22T15:25:55.308Z,2.00
2022-10-22T15:28:21.978Z,4.47
2022-10-22T15:30:55.627Z,2.60
2022-10-22T15:33:22.328Z,5.50
2022-10-22T15:35:48.667Z,5.47
2022-10-22T15:38:14.999Z,2.08
2022-10-22T15:40:41.267Z,4.47
2022-10-22T15:43:07.639Z,3.05
2022-10-22T15:45:33.937Z,5.75
2022-10-22T15:48:00.288Z,7.25
2022-10-22T15:50:26.620Z,5.55
2022-10-22T15:52:54.374Z,3.63
2022-10-22T15:55:20.709Z,4.00
2022-10-22T15:57:47.563Z,4.32
2022-10-22T16:00:14.058Z,4.32
2022-10-22T16:02:40.393Z,7.00
2022-10-22T16:05:07.043Z,4.20
2022-10-22T16:07:33.273Z,2.75
2022-10-22T16:10:00.322Z,5.45
2022-10-22T16:12:26.593Z,3.92
2022-10-22T16:14:53.013Z,4.18
2022-10-22T16:17:19.305Z,4.82
2022-10-22T16:19:45.641Z,5.15
2022-10-22T16:22:13.839Z,3.67
2022-10-22T16:24:43.175Z,4.97
2022-10-22T16:27:10.029Z,3.88
2022-10-22T16:29:39.677Z,3.20
2022-10-22T16:32:06.384Z,4.97
2022-10-22T16:34:32.732Z,4.85
2022-10-22T16:36:58.978Z,5.95
2022-10-22T16:39:25.282Z,3.70
2022-10-22T16:41:51.772Z,4.55
2022-10-22T16:44:18.022Z,3.17
2022-10-22T16:46:44.375Z,4.10
2022-10-22T16:49:10.779Z,5.10
2022-10-22T16:51:37.016Z,4.22
2022-10-22T16:54:05.544Z,6.32
2022-10-22T16:56:36.480Z,8.95
2022-10-22T16:59:02.716Z,2.30
2022-10-22T17:01:29.775Z,6.43
2022-10-22T17:03:56.685Z,2.80
2022-10-22T17:06:24.103Z,3.70
2022-10-22T17:08:53.500Z,8.02
2022-10-22T17:11:21.001Z,5.43
2022-10-22T17:13:52.578Z,2.80
2022-10-22T17:21:17.856Z,5.38
2022-10-22T17:23:44.196Z,8.05
2022-10-22T17:26:19.527Z,4.07
2022-10-22T17:28:45.942Z,5.78
2022-10-22T17:31:17.149Z,5.22
2022-10-22T17:33:43.371Z,5.00
2022-10-22T17:36:11.835Z,6.13
2022-10-22T17:38:39.273Z,5.35
2022-10-22T17:41:07.480Z,6.38
2022-10-22T17:43:35.447Z,6.18
2022-10-22T17:46:05.811Z,6.65
2022-10-22T17:48:32.267Z,5.25
2022-10-22T17:50:59.382Z,5.63
2022-10-22T17:53:25.672Z,8.18
2022-10-22T17:55:58.270Z,9.35
2022-10-22T17:58:24.480Z,11.05
2022-10-22T18:00:51.080Z,11.63
2022-10-22T18:03:17.359Z,7.50
2022-10-22T18:05:43.576Z,6.82
2022-10-22T18:08:09.795Z,7.03
2022-10-22T18:10:39.099Z,7.68
2022-10-22T18:13:05.293Z,6.07
2022-10-22T18:15:33.370Z,6.93
2022-10-22T18:17:59.633Z,5.55
2022-10-22T18:20:25.835Z,5.18
2022-10-22T18:22:53.880Z,6.75
2022-10-22T18:25:20.683Z,6.85
2022-10-22T18:27:47.141Z,7.10
2022-10-22T18:30:13.806Z,10.55
2022-10-22T18:32:40.023Z,7.57
2022-10-22T18:35:06.659Z,7.85
2022-10-22T18:37:35.923Z,10.18
2022-10-22T18:40:02.921Z,6.30
2022-10-22T18:42:32.455Z,6.88
2022-10-22T18:47:26.869Z,9.38
2022-10-22T18:49:53.092Z,8.98
2022-10-22T18:52:19.341Z,7.40
2022-10-22T18:54:45.532Z,6.55
2022-10-22T18:57:11.793Z,7.10
2022-10-22T18:59:38.135Z,8.23
2022-10-22T19:02:04.439Z,7.55
2022-10-22T19:04:36.901Z,5.22
2022-10-22T19:07:07.251Z,6.38
2022-10-22T19:09:33.559Z,6.72
2022-10-22T19:12:00.251Z,8.45
2022-10-22T19:14:26.579Z,7.18
2022-10-22T19:16:52.859Z,6.47
2022-10-22T19:19:19.789Z,7.50
2022-10-22T19:21:46.150Z,10.63
2022-10-22T19:24:13.738Z,10.10
2022-10-22T19:26:40.251Z,10.68
2022-10-22T19:29:06.497Z,9.80
2022-10-22T19:31:32.788Z,9.55
2022-10-22T19:33:59.963Z,8.48
2022-10-22T19:36:28.042Z,7.20
2022-10-22T19:38:55.072Z,7.30
2022-10-22T19:41:22.098Z,7.40
2022-10-22T19:43:49.157Z,10.02
2022-10-22T19:46:15.407Z,8.52
2022-10-22T19:48:41.658Z,8.18
2022-10-22T19:51:09.291Z,5.78
2022-10-22T19:53:36.565Z,8.68
2022-10-22T19:56:04.518Z,9.32
2022-10-22T19:58:30.732Z,10.18
2022-10-22T20:00:57.098Z,13.52
2022-10-22T20:03:23.463Z,9.75
2022-10-22T20:05:52.792Z,10.45
2022-10-22T20:08:19.080Z,8.88
2022-10-22T20:10:48.265Z,10.68
2022-10-22T20:13:14.510Z,9.48
2022-10-22T20:15:40.694Z,10.00
2022-10-22T20:18:06.903Z,8.23
2022-10-22T20:20:33.139Z,8.88
2022-10-22T20:22:59.340Z,10.55
2022-10-22T20:25:25.538Z,13.75
2022-10-22T20:27:51.800Z,9.60
2022-10-22T20:30:20.000Z,8.98
2022-10-22T20:32:46.247Z,13.05
2022-10-22T20:35:14.083Z,11.00
2022-10-22T20:37:40.410Z,13.18
2022-10-22T20:40:07.517Z,9.90
2022-10-22T20:42:34.149Z,9.18
2022-10-22T20:45:00.399Z,12.48
2022-10-22T20:47:34.243Z,9.07
2022-10-22T20:50:12.222Z,9.70
2022-10-22T20:52:38.512Z,11.25
2022-10-22T20:55:04.973Z,8.10
2022-10-22T20:57:31.319Z,11.05
2022-10-22T20:59:57.695Z,12.52
2022-10-22T21:02:24.062Z,10.05
2022-10-22T21:04:50.420Z,8.88
2022-10-22T21:07:16.622Z,9.05
2022-10-22T21:09:42.946Z,9.32
2022-10-22T21:12:09.191Z,10.25
2022-10-22T21:14:35.396Z,11.27
2022-10-22T21:17:01.644Z,12.00
2022-10-22T21:19:27.902Z,12.25
2022-10-22T21:21:54.212Z,11.13
2022-10-22T21:24:24.541Z,12.43
2022-10-22T21:26:52.084Z,9.40
2022-10-22T21:29:18.924Z,8.82
2022-10-22T21:31:45.323Z,7.88
2022-10-22T21:34:14.821Z,15.63
2022-10-22T21:36:41.420Z,14.32
2022-10-22T21:39:08.548Z,8.65
2022-10-22T21:41:36.400Z,10.07
2022-10-22T21:44:02.635Z,7.28
2022-10-22T21:46:29.448Z,9.65
2022-10-22T21:48:56.851Z,10.95
2022-10-22T21:51:23.482Z,9.57
2022-10-22T21:53:49.745Z,11.25
2022-10-22T21:56:20.360Z,9.52
2022-10-22T21:58:46.780Z,13.07
2022-10-22T22:01:14.387Z,9.45
2022-10-22T22:03:41.338Z,8.40
2022-10-22T22:06:07.627Z,9.55
2022-10-22T22:08:34.256Z,8.50
2022-10-22T22:11:02.083Z,8.07
2022-10-22T22:13:28.400Z,10.27
2022-10-22T22:15:58.718Z,8.02
2022-10-22T22:18:24.923Z,7.47
2022-10-22T22:20:51.757Z,11.10
2022-10-22T22:23:18.017Z,11.10
2022-10-22T22:25:45.899Z,9.48
2022-10-22T22:28:12.125Z,7.18
2022-10-22T22:30:38.323Z,10.05
2022-10-22T22:33:04.548Z,10.23
2022-10-22T22:35:30.849Z,10.18
2022-10-22T22:37:57.350Z,12.43
2022-10-22T22:40:23.540Z,7.47
2022-10-22T22:42:49.832Z,8.50
2022-10-22T22:45:16.035Z,10.48
2022-10-22T22:47:42.383Z,9.80
2022-10-22T22:50:08.860Z,10.63
2022-10-22T22:52:35.088Z,8.65
2022-10-22T22:55:01.546Z,9.30
2022-10-22T22:57:27.758Z,7.93
2022-10-22T22:59:53.987Z,8.90
2022-10-22T23:02:20.204Z,10.32
2022-10-22T23:04:47.435Z,8.80
2022-10-22T23:07:13.702Z,9.32
2022-10-22T23:09:39.898Z,7.22
2022-10-22T23:12:06.215Z,9.93
2022-10-22T23:14:32.469Z,10.73
2022-10-22T23:16:58.680Z,9.45
2022-10-22T23:19:24.950Z,8.60
2022-10-22T23:21:52.329Z,7.53
2022-10-22T23:24:20.313Z,10.05
2022-10-22T23:26:47.692Z,6.28
2022-10-22T23:29:15.313Z,10.18
2022-10-22T23:31:41.977Z,9.82
2022-10-22T23:34:09.520Z,10.75
2022-10-22T23:36:36.642Z,8.27
2022-10-22T23:39:04.707Z,8.05
2022-10-22T23:41:30.999Z,10.63
2022-10-22T23:43:57.258Z,5.63
2022-10-22T23:46:23.472Z,9.52
2022-10-22T23:48:49.811Z,8.27
2022-10-22T23:51:16.771Z,8.00
2022-10-22T23:53:44.142Z,7.35
2022-10-22T23:56:13.015Z,11.50
2022-10-22T23:58:39.387Z,8.40
